createdAt,value
2023-03-16T00:02:19.280Z,4.40
2023-03-16T00:04:47.729Z,4.86
2023-03-16T00:07:16.067Z,4.81
2023-03-16T00:09:45.753Z,4.92
2023-03-16T00:12:16.872Z,4.89
2023-03-16T00:14:45.454Z,5.05
2023-03-16T00:17:19.168Z,5.26
2023-03-16T00:19:48.217Z,5.06
2023-03-16T00:22:17.117Z,5.09
2023-03-16T00:24:46.602Z,4.51
2023-03-16T00:27:15.606Z,4.74
2023-03-16T00:29:47.606Z,4.65
2023-03-16T00:32:17.648Z,4.87
2023-03-16T00:34:46.135Z,5.10
2023-03-16T00:37:15.627Z,4.99
2023-03-16T00:39:44.407Z,4.70
2023-03-16T00:42:16.318Z,4.70
2023-03-16T00:44:44.470Z,4.40
2023-03-16T00:47:14.733Z,4.45
2023-03-16T00:49:43.305Z,4.48
2023-03-16T00:52:14.812Z,4.74
2023-03-16T00:54:44.184Z,4.59
2023-03-16T00:57:13.809Z,4.71
2023-03-16T00:59:44.202Z,4.48
2023-03-16T01:02:13.480Z,4.42
2023-03-16T01:04:41.568Z,4.36
2023-03-16T01:07:11.112Z,4.51
2023-03-16T01:09:39.730Z,4.46
2023-03-16T01:12:08.561Z,4.53
2023-03-16T01:14:36.871Z,4.49
2023-03-16T01:17:08.846Z,4.31
2023-03-16T01:19:37.245Z,4.30
2023-03-16T01:22:06.080Z,4.48
2023-03-16T01:24:34.821Z,4.70
2023-03-16T01:27:03.300Z,4.66
2023-03-16T01:29:31.864Z,4.54
2023-03-16T01:32:00.506Z,4.59
2023-03-16T01:34:30.106Z,4.44
2023-03-16T01:36:58.629Z,4.37
2023-03-16T01:39:37.505Z,4.38
2023-03-16T01:42:06.801Z,4.67
2023-03-16T01:44:49.648Z,4.59
2023-03-16T01:47:18.523Z,4.40
2023-03-16T01:49:48.535Z,4.35
2023-03-16T01:52:20.525Z,4.48
2023-03-16T01:54:52.225Z,4.00
2023-03-16T01:57:22.146Z,4.56
2023-03-16T01:59:53.553Z,4.14
2023-03-16T02:02:24.066Z,4.46
2023-03-16T02:04:57.726Z,4.35
2023-03-16T02:07:26.648Z,4.26
2023-03-16T02:09:57.030Z,4.23
2023-03-16T02:12:25.898Z,4.68
2023-03-16T02:14:56.602Z,4.76
2023-03-16T02:17:45.961Z,4.69
2023-03-16T02:20:24.223Z,4.86
2023-03-16T02:22:54.504Z,4.73
2023-03-16T02:25:24.453Z,4.91
2023-03-16T02:27:58.189Z,4.68
2023-03-16T02:30:28.948Z,4.50
2023-03-16T02:33:01.801Z,4.69
2023-03-16T02:35:30.090Z,4.56
2023-03-16T02:37:58.453Z,4.97
2023-03-16T02:40:32.443Z,4.91
2023-03-16T02:43:06.830Z,4.92
2023-03-16T02:45:43.791Z,4.66
2023-03-16T02:48:16.020Z,4.67
2023-03-16T02:50:47.065Z,4.73
2023-03-16T02:53:16.292Z,4.75
2023-03-16T02:55:45.113Z,4.75
2023-03-16T02:58:14.194Z,5.03
2023-03-16T03:00:45.381Z,4.80
2023-03-16T03:03:15.490Z,4.77
2023-03-16T03:05:43.795Z,4.76
2023-03-16T03:08:12.188Z,4.73
2023-03-16T03:10:40.364Z,4.64
2023-03-16T03:13:09.914Z,4.71
2023-03-16T03:15:41.259Z,4.77
2023-03-16T03:18:14.701Z,4.67
2023-03-16T03:20:43.102Z,4.85
2023-03-16T03:23:11.680Z,4.67
2023-03-16T03:25:42.728Z,4.53
2023-03-16T03:28:11.581Z,4.65
2023-03-16T03:30:39.761Z,4.48
2023-03-16T03:33:08.852Z,4.66
2023-03-16T03:35:38.486Z,4.52
2023-03-16T03:38:08.281Z,4.79
2023-03-16T03:40:37.678Z,4.68
2023-03-16T03:43:06.475Z,4.89
2023-03-16T03:45:39.341Z,4.79
2023-03-16T03:48:08.030Z,4.51
2023-03-16T03:50:36.199Z,4.60
2023-03-16T03:53:28.957Z,4.67
2023-03-16T03:56:18.761Z,4.69
2023-03-16T03:58:47.518Z,4.78
2023-03-16T04:01:22.338Z,4.19
2023-03-16T04:03:50.759Z,4.64
2023-03-16T04:06:19.535Z,4.70
2023-03-16T04:08:49.441Z,4.65
2023-03-16T04:11:21.043Z,4.78
2023-03-16T04:13:49.377Z,4.62
2023-03-16T04:16:17.575Z,4.58
2023-03-16T04:18:48.577Z,4.23
2023-03-16T04:21:17.831Z,4.37
2023-03-16T04:23:49.802Z,4.36
2023-03-16T04:26:18.449Z,4.22
2023-03-16T04:28:49.162Z,4.35
2023-03-16T04:31:20.059Z,4.57
2023-03-16T04:33:49.632Z,4.25
2023-03-16T04:36:17.811Z,4.20
2023-03-16T04:38:46.519Z,4.39
2023-03-16T04:41:16.085Z,4.53
2023-03-16T04:43:52.694Z,4.46
2023-03-16T04:46:24.341Z,4.68
2023-03-16T04:48:52.545Z,4.63
2023-03-16T04:51:21.625Z,4.76
2023-03-16T04:54:12.801Z,4.98
2023-03-16T04:56:45.275Z,4.68
2023-03-16T04:59:39.394Z,4.68
2023-03-16T05:02:24.535Z,4.44
2023-03-16T05:04:52.841Z,4.62
2023-03-16T05:07:21.401Z,4.39
2023-03-16T05:09:53.873Z,4.58
2023-03-16T05:12:24.121Z,4.70
2023-03-16T05:14:57.421Z,4.96
2023-03-16T05:17:37.973Z,4.81
2023-03-16T05:20:08.448Z,4.55
2023-03-16T05:22:41.657Z,4.83
2023-03-16T05:25:30.068Z,4.18
2023-03-16T05:28:03.331Z,4.32
2023-03-16T05:30:42.237Z,4.48
2023-03-16T05:33:14.207Z,4.93
2023-03-16T05:35:43.240Z,5.27
2023-03-16T05:38:15.910Z,4.58
2023-03-16T05:40:46.329Z,3.90
2023-03-16T05:43:36.093Z,4.58
2023-03-16T05:46:04.617Z,4.62
2023-03-16T05:48:36.113Z,4.97
2023-03-16T05:51:06.183Z,5.01
2023-03-16T05:53:35.610Z,5.06
2023-03-16T05:56:13.881Z,4.99
2023-03-16T05:58:46.125Z,4.79
2023-03-16T06:01:15.747Z,5.05
2023-03-16T06:03:44.980Z,4.96
2023-03-16T06:06:21.736Z,4.83
2023-03-16T06:08:59.770Z,5.05
2023-03-16T06:11:28.954Z,5.27
2023-03-16T06:13:58.617Z,5.17
2023-03-16T06:16:27.309Z,5.11
2023-03-16T06:18:58.516Z,5.58
2023-03-16T06:21:28.514Z,4.91
2023-03-16T06:24:02.153Z,4.84
2023-03-16T06:26:30.670Z,4.95
2023-03-16T06:29:00.535Z,5.15
2023-03-16T06:31:28.806Z,4.72
2023-03-16T06:33:57.262Z,5.06
2023-03-16T06:36:25.924Z,5.47
2023-03-16T06:38:57.482Z,4.86
2023-03-16T06:41:34.939Z,4.74
2023-03-16T06:44:06.270Z,4.65
2023-03-16T06:46:38.431Z,4.68
2023-03-16T06:49:06.853Z,4.90
2023-03-16T06:51:35.130Z,4.40
2023-03-16T06:54:03.376Z,4.69
2023-03-16T06:56:32.913Z,5.15
2023-03-16T06:59:01.731Z,5.14
2023-03-16T07:01:31.898Z,5.07
2023-03-16T07:04:00.347Z,4.85
2023-03-16T07:06:31.737Z,4.67
2023-03-16T07:09:01.594Z,4.66
2023-03-16T07:11:32.702Z,4.66
2023-03-16T07:14:01.706Z,4.64
2023-03-16T07:16:33.670Z,5.02
2023-03-16T07:19:05.251Z,5.25
2023-03-16T07:21:39.463Z,5.14
2023-03-16T07:24:11.236Z,5.40
2023-03-16T07:26:39.726Z,5.10
2023-03-16T07:29:09.801Z,5.17
2023-03-16T07:31:40.114Z,5.07
2023-03-16T07:34:12.966Z,4.72
2023-03-16T07:36:52.868Z,4.56
2023-03-16T07:39:22.801Z,4.71
2023-03-16T07:41:54.534Z,4.75
2023-03-16T07:44:38.492Z,4.75
2023-03-16T07:47:08.539Z,5.23
2023-03-16T07:49:36.801Z,5.12
2023-03-16T07:52:05.069Z,4.50
2023-03-16T07:54:39.594Z,4.78
2023-03-16T07:57:08.767Z,5.62
2023-03-16T07:59:41.662Z,5.47
2023-03-16T08:02:14.978Z,5.58
2023-03-16T08:04:43.936Z,5.57
2023-03-16T08:07:14.389Z,5.81
2023-03-16T08:10:06.813Z,5.72
2023-03-16T08:12:43.069Z,5.18
2023-03-16T08:15:12.161Z,5.40
2023-03-16T08:17:42.751Z,5.43
2023-03-16T08:20:15.858Z,5.48
2023-03-16T08:22:46.669Z,5.88
2023-03-16T08:25:19.995Z,6.73
2023-03-16T08:28:00.271Z,6.73
2023-03-16T08:30:28.749Z,7.30
2023-03-16T08:33:23.036Z,7.20
2023-03-16T08:35:53.136Z,7.05
2023-03-16T08:38:21.479Z,7.00
2023-03-16T08:40:52.343Z,6.93
2023-03-16T08:43:24.081Z,6.56
2023-03-16T08:45:53.929Z,6.28
2023-03-16T08:48:27.368Z,6.46
2023-03-16T08:50:55.746Z,5.82
2023-03-16T08:53:23.793Z,5.37
2023-03-16T08:55:51.992Z,5.54
2023-03-16T08:58:20.078Z,5.55
2023-03-16T09:00:50.241Z,6.03
2023-03-16T09:03:18.754Z,5.98
2023-03-16T09:05:48.266Z,6.61
2023-03-16T09:08:16.899Z,6.95
2023-03-16T09:10:44.984Z,6.58
2023-03-16T09:13:13.196Z,6.68
2023-03-16T09:15:41.708Z,6.71
2023-03-16T09:18:10.564Z,6.66
2023-03-16T09:20:38.996Z,6.56
2023-03-16T09:23:08.694Z,7.05
2023-03-16T09:25:36.751Z,7.37
2023-03-16T09:28:04.950Z,7.00
2023-03-16T09:30:33.597Z,6.80
2023-03-16T09:33:02.081Z,6.39
2023-03-16T09:35:30.463Z,5.83
2023-03-16T09:38:07.139Z,5.61
2023-03-16T09:40:38.425Z,5.74
2023-03-16T09:43:20.196Z,5.54
2023-03-16T09:45:50.494Z,5.69
2023-03-16T09:48:20.971Z,5.44
2023-03-16T09:50:50.232Z,5.48
2023-03-16T09:53:24.954Z,5.88
2023-03-16T09:55:56.534Z,6.19
2023-03-16T09:58:24.703Z,6.09
2023-03-16T10:00:57.187Z,5.88
2023-03-16T10:03:34.275Z,5.48
2023-03-16T10:06:03.960Z,5.76
2023-03-16T10:08:34.479Z,5.91
2023-03-16T10:11:10.849Z,5.85
2023-03-16T10:13:41.728Z,5.48
2023-03-16T10:16:12.556Z,5.30
2023-03-16T10:18:43.011Z,5.31
2023-03-16T10:21:15.415Z,4.95
2023-03-16T10:23:44.092Z,5.13
2023-03-16T10:26:18.874Z,5.27
2023-03-16T10:28:48.142Z,5.45
2023-03-16T10:31:18.208Z,5.84
2023-03-16T10:33:46.530Z,5.76
2023-03-16T10:36:17.270Z,5.48
2023-03-16T10:38:49.308Z,5.42
2023-03-16T10:41:23.207Z,5.60
2023-03-16T10:43:52.553Z,5.80
2023-03-16T10:46:20.876Z,5.91
2023-03-16T10:48:59.802Z,5.91
2023-03-16T10:51:29.658Z,5.67
2023-03-16T10:53:59.519Z,5.75
2023-03-16T10:56:34.220Z,5.47
2023-03-16T10:59:02.991Z,5.17
2023-03-16T11:01:32.488Z,5.15
2023-03-16T11:04:00.921Z,5.41
2023-03-16T11:06:30.850Z,5.42
2023-03-16T11:09:05.303Z,5.79
2023-03-16T11:11:37.548Z,5.52
2023-03-16T11:14:12.861Z,5.48
2023-03-16T11:16:42.765Z,5.85
2023-03-16T11:19:16.960Z,5.54
2023-03-16T11:21:49.721Z,5.61
2023-03-16T11:24:20.026Z,5.57
2023-03-16T11:26:53.305Z,5.87
2023-03-16T11:29:25.815Z,5.60
2023-03-16T11:31:56.454Z,5.40
2023-03-16T11:34:28.402Z,5.38
2023-03-16T11:36:57.915Z,5.19
2023-03-16T11:39:32.451Z,4.80
2023-03-16T11:42:11.526Z,4.92
2023-03-16T11:44:44.781Z,4.65
2023-03-16T11:47:26.303Z,4.63
2023-03-16T11:49:58.702Z,4.92
2023-03-16T11:52:34.387Z,5.40
2023-03-16T11:55:08.114Z,5.12
2023-03-16T11:57:42.247Z,5.26
2023-03-16T12:00:21.922Z,5.12
2023-03-16T12:03:00.257Z,5.13
2023-03-16T12:05:45.025Z,5.14
2023-03-16T12:08:21.643Z,4.93
2023-03-16T12:10:54.374Z,5.07
2023-03-16T12:13:35.925Z,4.80
2023-03-16T12:16:07.680Z,4.82
2023-03-16T12:18:40.395Z,5.30
2023-03-16T12:21:13.754Z,5.31
2023-03-16T12:23:45.780Z,5.11
2023-03-16T12:26:14.880Z,5.15
2023-03-16T12:28:45.403Z,5.18
2023-03-16T12:31:15.624Z,4.78
2023-03-16T12:33:53.080Z,4.84
2023-03-16T12:36:40.130Z,4.58
2023-03-16T12:39:10.139Z,4.87
2023-03-16T12:41:49.196Z,4.78
2023-03-16T12:44:22.867Z,4.72
2023-03-16T12:46:56.435Z,4.86
2023-03-16T12:49:26.601Z,5.01
2023-03-16T12:52:01.840Z,4.90
2023-03-16T12:54:30.941Z,4.95
2023-03-16T12:57:04.952Z,5.07
2023-03-16T12:59:41.940Z,5.16
2023-03-16T13:02:15.437Z,5.39
2023-03-16T13:04:45.784Z,5.40
2023-03-16T13:07:19.678Z,5.35
2023-03-16T13:09:51.640Z,5.10
2023-03-16T13:12:25.212Z,4.90
2023-03-16T13:14:57.520Z,4.53
2023-03-16T13:17:27.824Z,4.57
2023-03-16T13:20:00.937Z,4.47
2023-03-16T13:22:30.542Z,4.51
2023-03-16T13:25:02.914Z,4.29
2023-03-16T13:27:35.363Z,4.37
2023-03-16T13:30:17.280Z,4.43
2023-03-16T13:32:47.123Z,4.37
2023-03-16T13:35:17.216Z,4.85
2023-03-16T13:37:47.137Z,4.75
2023-03-16T13:40:20.527Z,5.02
2023-03-16T13:42:50.962Z,5.14
2023-03-16T13:45:22.906Z,5.22
2023-03-16T13:47:52.216Z,5.23
2023-03-16T13:50:21.933Z,5.23
2023-03-16T13:52:57.316Z,4.94
2023-03-16T13:55:28.861Z,4.98
2023-03-16T13:57:58.187Z,4.82
2023-03-16T14:00:29.439Z,4.84
2023-03-16T14:02:59.223Z,4.88
2023-03-16T14:05:28.794Z,4.84
2023-03-16T14:07:59.736Z,4.82
2023-03-16T14:10:30.430Z,4.52
2023-03-16T14:12:59.731Z,4.58
2023-03-16T14:15:31.998Z,4.48
2023-03-16T14:18:10.653Z,4.67
2023-03-16T14:20:41.774Z,4.50
2023-03-16T14:23:18.561Z,4.72
2023-03-16T14:25:49.092Z,4.58
2023-03-16T14:28:19.113Z,4.47
2023-03-16T14:30:54.276Z,4.27
2023-03-16T14:33:28.472Z,4.24
2023-03-16T14:35:57.981Z,4.49
2023-03-16T14:38:31.385Z,4.36
2023-03-16T14:41:04.354Z,4.24
2023-03-16T14:43:35.915Z,4.25
2023-03-16T14:46:07.701Z,4.32
2023-03-16T14:48:37.203Z,4.38
2023-03-16T14:51:06.502Z,4.48
2023-03-16T14:53:34.622Z,4.26
2023-03-16T14:56:03.914Z,4.23
2023-03-16T14:58:34.248Z,4.02
2023-03-16T15:01:02.573Z,4.12
2023-03-16T15:03:34.426Z,4.27
2023-03-16T15:06:04.138Z,4.48
2023-03-16T15:08:37.168Z,4.31
2023-03-16T15:11:07.770Z,4.10
2023-03-16T15:13:53.002Z,4.33
2023-03-16T15:16:22.892Z,4.04
2023-03-16T15:18:53.213Z,3.89
2023-03-16T15:21:25.533Z,4.21
2023-03-16T15:23:53.932Z,4.29
2023-03-16T15:26:26.528Z,4.19
2023-03-16T15:28:54.992Z,4.46
2023-03-16T15:31:23.538Z,4.18
2023-03-16T15:33:53.188Z,4.33
2023-03-16T15:36:22.575Z,4.27
2023-03-16T15:38:52.420Z,4.05
2023-03-16T15:41:21.548Z,4.04
2023-03-16T15:43:52.776Z,4.13
2023-03-16T15:46:21.313Z,4.15
2023-03-16T15:48:50.534Z,4.04
2023-03-16T15:51:22.896Z,3.94
2023-03-16T15:53:55.458Z,3.95
2023-03-16T15:56:30.012Z,3.87
2023-03-16T15:59:01.494Z,3.72
2023-03-16T16:01:32.206Z,3.73
2023-03-16T16:04:00.504Z,3.90
2023-03-16T16:06:30.768Z,4.19
2023-03-16T16:08:58.999Z,4.27
2023-03-16T16:11:28.396Z,4.31
2023-03-16T16:13:57.233Z,4.34
2023-03-16T16:16:27.304Z,4.13
2023-03-16T16:18:55.699Z,4.27
2023-03-16T16:21:26.867Z,4.31
2023-03-16T16:23:56.992Z,4.41
2023-03-16T16:26:37.637Z,4.39
2023-03-16T16:29:13.901Z,4.48
2023-03-16T16:31:42.255Z,4.01
2023-03-16T16:34:13.812Z,4.12
2023-03-16T16:36:42.376Z,4.01
2023-03-16T16:39:12.745Z,4.33
2023-03-16T16:41:42.189Z,4.29
2023-03-16T16:44:16.337Z,4.17
2023-03-16T16:46:45.391Z,4.03
2023-03-16T16:49:15.855Z,3.99
2023-03-16T16:51:44.860Z,3.90
2023-03-16T16:54:17.464Z,3.99
2023-03-16T16:56:46.489Z,4.15
2023-03-16T16:59:17.674Z,3.93
2023-03-16T17:01:46.602Z,3.92
2023-03-16T17:04:16.174Z,3.94
2023-03-16T17:06:44.642Z,3.83
2023-03-16T17:09:14.479Z,3.66
2023-03-16T17:11:45.573Z,3.70
2023-03-16T17:14:17.841Z,3.51
2023-03-16T17:16:47.984Z,3.58
2023-03-16T17:19:20.021Z,3.64
2023-03-16T17:21:49.434Z,3.69
2023-03-16T17:24:18.769Z,3.69
2023-03-16T17:26:50.264Z,3.68
2023-03-16T17:29:21.216Z,3.40
2023-03-16T17:31:50.303Z,3.50
2023-03-16T17:34:19.523Z,3.41
2023-03-16T17:36:49.075Z,3.40
2023-03-16T17:39:19.249Z,3.48
2023-03-16T17:41:50.194Z,3.54
2023-03-16T17:44:21.617Z,3.27
2023-03-16T17:46:50.532Z,3.57
2023-03-16T17:49:20.363Z,3.59
2023-03-16T17:51:50.360Z,3.41
2023-03-16T17:54:19.559Z,3.46
2023-03-16T17:56:51.429Z,3.20
2023-03-16T17:59:21.590Z,3.29
2023-03-16T18:01:51.071Z,3.27
2023-03-16T18:04:21.472Z,3.25
2023-03-16T18:06:51.581Z,3.34
2023-03-16T18:09:21.722Z,3.35
2023-03-16T18:11:53.172Z,3.38
2023-03-16T18:14:26.660Z,3.47
2023-03-16T18:16:56.481Z,3.23
2023-03-16T18:19:25.939Z,3.41
2023-03-16T18:21:54.927Z,3.60
2023-03-16T18:24:26.910Z,3.47
2023-03-16T18:26:56.935Z,3.33
2023-03-16T18:29:25.458Z,3.33
2023-03-16T18:31:55.260Z,3.44
2023-03-16T18:34:25.001Z,3.25
2023-03-16T18:36:55.172Z,3.49
2023-03-16T18:39:23.802Z,3.95
2023-03-16T18:41:52.787Z,3.32
2023-03-16T18:44:23.950Z,3.58
2023-03-16T18:46:55.294Z,3.56
2023-03-16T18:49:28.015Z,3.61
2023-03-16T18:51:56.812Z,3.39
2023-03-16T18:54:26.052Z,3.11
2023-03-16T18:56:55.535Z,3.15
2023-03-16T18:59:25.823Z,3.21
2023-03-16T19:01:54.800Z,3.14
2023-03-16T19:04:25.605Z,3.40
2023-03-16T19:06:55.600Z,3.40
2023-03-16T19:09:26.859Z,3.35
2023-03-16T19:11:56.152Z,3.19
2023-03-16T19:14:27.804Z,2.99
2023-03-16T19:16:57.819Z,2.68
2023-03-16T19:19:27.639Z,2.99
2023-03-16T19:21:58.177Z,2.93
2023-03-16T19:24:28.500Z,3.02
2023-03-16T19:26:57.826Z,2.82
2023-03-16T19:29:30.220Z,2.72
2023-03-16T19:31:59.785Z,3.12
2023-03-16T19:34:28.949Z,2.94
2023-03-16T19:36:57.777Z,2.98
2023-03-16T19:39:28.034Z,3.17
2023-03-16T19:41:58.721Z,3.06
2023-03-16T19:44:29.654Z,3.12
2023-03-16T19:47:00.482Z,3.17
2023-03-16T19:49:29.517Z,2.82
2023-03-16T19:51:58.466Z,3.08
2023-03-16T19:54:28.279Z,3.00
2023-03-16T19:56:58.218Z,3.25
2023-03-16T19:59:31.401Z,3.22
2023-03-16T20:02:00.183Z,3.12
2023-03-16T20:04:30.527Z,3.19
2023-03-16T20:06:59.210Z,2.94
2023-03-16T20:09:27.552Z,2.74
2023-03-16T20:11:56.268Z,2.95
2023-03-16T20:14:30.873Z,2.92
2023-03-16T20:17:01.152Z,2.78
2023-03-16T20:19:30.004Z,2.90
2023-03-16T20:21:58.476Z,2.72
2023-03-16T20:24:28.927Z,2.97
2023-03-16T20:26:57.426Z,2.96
2023-03-16T20:29:30.149Z,2.90
2023-03-16T20:32:00.848Z,2.72
2023-03-16T20:34:30.897Z,2.68
2023-03-16T20:36:59.729Z,2.64
2023-03-16T20:39:28.511Z,2.57
2023-03-16T20:41:58.107Z,2.67
2023-03-16T20:44:28.142Z,2.88
2023-03-16T20:46:57.148Z,2.61
2023-03-16T20:49:32.893Z,2.65
2023-03-16T20:52:02.450Z,2.48
2023-03-16T20:54:31.699Z,2.54
2023-03-16T20:57:01.382Z,2.70
2023-03-16T20:59:30.417Z,2.72
2023-03-16T21:01:59.001Z,2.64
2023-03-16T21:04:29.113Z,2.62
2023-03-16T21:06:59.061Z,2.72
2023-03-16T21:09:27.914Z,2.55
2023-03-16T21:11:56.800Z,2.78
2023-03-16T21:14:26.715Z,2.68
2023-03-16T21:16:56.486Z,2.83
2023-03-16T21:19:25.621Z,2.67
2023-03-16T21:21:54.613Z,2.67
2023-03-16T21:24:24.951Z,2.59
2023-03-16T21:26:54.447Z,2.70
2023-03-16T21:29:24.062Z,2.45
2023-03-16T21:31:53.312Z,2.55
2023-03-16T21:34:26.971Z,2.79
2023-03-16T21:36:56.140Z,2.72
2023-03-16T21:39:26.197Z,2.44
2023-03-16T21:41:55.057Z,2.61
2023-03-16T21:44:23.373Z,2.45
2023-03-16T21:46:51.899Z,2.52
2023-03-16T21:49:20.821Z,2.46
2023-03-16T21:51:51.239Z,2.54
2023-03-16T21:54:20.237Z,2.56
2023-03-16T21:56:50.570Z,2.39
2023-03-16T21:59:19.203Z,2.61
2023-03-16T22:02:00.844Z,2.54
2023-03-16T22:04:30.181Z,2.61
2023-03-16T22:06:58.860Z,2.44
2023-03-16T22:09:30.478Z,2.79
2023-03-16T22:12:00.808Z,2.63
2023-03-16T22:14:29.693Z,2.42
2023-03-16T22:16:58.650Z,2.26
2023-03-16T22:19:27.925Z,2.48
2023-03-16T22:21:57.228Z,2.39
2023-03-16T22:24:26.600Z,2.49
2023-03-16T22:26:55.305Z,2.53
2023-03-16T22:29:26.592Z,2.49
2023-03-16T22:31:57.830Z,2.51
2023-03-16T22:34:31.787Z,2.40
2023-03-16T22:37:00.904Z,2.46
2023-03-16T22:39:29.872Z,2.30
2023-03-16T22:41:58.493Z,2.10
2023-03-16T22:44:28.775Z,2.12
2023-03-16T22:46:57.372Z,2.42
2023-03-16T22:49:27.393Z,2.29
2023-03-16T22:51:56.899Z,2.45
2023-03-16T22:54:27.128Z,2.27
2023-03-16T22:56:56.131Z,2.16
2023-03-16T22:59:26.643Z,2.12
2023-03-16T23:01:56.962Z,2.11
2023-03-16T23:04:30.309Z,2.05
2023-03-16T23:06:59.054Z,2.01
2023-03-16T23:09:27.830Z,2.12
2023-03-16T23:11:59.619Z,2.23
2023-03-16T23:14:30.936Z,2.18
2023-03-16T23:17:01.163Z,2.07
2023-03-16T23:19:31.247Z,2.31
2023-03-16T23:22:01.726Z,2.27
2023-03-16T23:24:30.811Z,2.25
2023-03-16T23:27:00.294Z,2.29
2023-03-16T23:29:29.580Z,2.20
2023-03-16T23:31:58.220Z,2.26
2023-03-16T23:34:28.020Z,2.21
2023-03-16T23:36:56.937Z,2.17
2023-03-16T23:39:26.200Z,2.27
2023-03-16T23:41:54.897Z,2.15
2023-03-16T23:44:25.184Z,2.35
2023-03-16T23:46:54.798Z,2.15
2023-03-16T23:49:24.495Z,2.33
2023-03-16T23:51:57.288Z,2.22
2023-03-16T23:54:26.991Z,2.14
2023-03-16T23:56:56.537Z,2.15
2023-03-16T23:59:25.941Z,2.25
